Time;durP1;ratioP1;P1;durP2;ratioP2;P2;SDS_P1;SDS_P2;PMS_P1;PMS_P2;Temp;Humidity;BMP_temperature;BMP_pressure;BME280_temperature;BME280_humidity;BME280_pressure;Samples;Min_cycle;Max_cycle;Signal;HPM_P1;HPM_P2
2021/05/04 00:00:06;;;;;;;5.25;4.47;;;7.70;49.00;;;;;;6111921;23;20264;-81
2021/05/04 00:02:33;;;;;;;6.18;5.05;;;7.60;49.40;;;;;;6137984;23;20233;-82
2021/05/04 00:04:59;;;;;;;4.93;4.35;;;7.60;49.70;;;;;;6153334;23;20169;-84
2021/05/04 00:07:25;;;;;;;8.63;4.93;;;7.60;49.90;;;;;;6153444;23;20208;-83
2021/05/04 00:09:53;;;;;;;5.53;4.60;;;7.50;49.90;;;;;;6153125;23;20168;-82
2021/05/04 00:12:19;;;;;;;5.78;4.45;;;7.50;50.10;;;;;;6152768;23;20194;-84
2021/05/04 00:14:46;;;;;;;4.80;4.40;;;7.40;50.50;;;;;;6151161;23;20181;-82
2021/05/04 00:17:12;;;;;;;6.13;4.25;;;7.30;50.80;;;;;;6149894;23;20184;-82
2021/05/04 00:19:39;;;;;;;5.25;3.90;;;7.30;51.20;;;;;;6149978;23;20200;-81
2021/05/04 00:22:06;;;;;;;4.57;4.22;;;7.30;50.70;;;;;;6148886;23;20211;-81
2021/05/04 00:24:32;;;;;;;4.35;3.95;;;7.30;50.00;;;;;;6148026;23;20263;-80
2021/05/04 00:27:00;;;;;;;3.40;3.10;;;7.40;48.90;;;;;;6146109;23;20192;-82
2021/05/04 00:29:26;;;;;;;4.40;4.00;;;7.40;48.00;;;;;;6148706;23;20192;-81
2021/05/04 00:31:52;;;;;;;3.90;3.60;;;7.50;48.10;;;;;;6148499;23;20205;-83
2021/05/04 00:34:19;;;;;;;4.78;4.13;;;7.50;47.70;;;;;;6152563;23;20165;-83
2021/05/04 00:36:45;;;;;;;3.28;2.97;;;7.50;46.60;;;;;;6151935;23;20161;-81
2021/05/04 00:39:12;;;;;;;3.55;3.10;;;7.70;45.50;;;;;;6151286;23;20211;-83
2021/05/04 00:41:38;;;;;;;3.40;3.10;;;7.70;45.10;;;;;;6149042;23;20196;-82
2021/05/04 00:44:06;;;;;;;4.60;3.30;;;7.80;43.80;;;;;;6145355;23;20659;-80
2021/05/04 00:46:32;;;;;;;3.10;2.80;;;7.80;43.60;;;;;;6145189;23;20189;-81
2021/05/04 00:48:59;;;;;;;3.00;2.80;;;7.80;43.50;;;;;;6144328;23;20188;-81
2021/05/04 00:51:25;;;;;;;3.78;3.00;;;7.90;42.60;;;;;;6150786;23;20196;-81
2021/05/04 00:53:52;;;;;;;3.08;2.88;;;7.90;42.00;;;;;;6143748;23;20179;-82
2021/05/04 00:56:19;;;;;;;3.20;2.90;;;7.90;41.80;;;;;;6137488;23;20195;-82
2021/05/04 00:58:50;;;;;;;3.42;2.60;;;8.00;41.80;;;;;;6131512;23;20212;-82
2021/05/04 01:01:18;;;;;;;3.40;2.90;;;7.90;41.70;;;;;;6130811;23;20231;-82
2021/05/04 01:03:45;;;;;;;4.05;2.88;;;7.90;41.40;;;;;;6132973;23;20200;-81
2021/05/04 01:06:12;;;;;;;2.40;2.20;;;7.90;41.20;;;;;;6131643;23;20177;-82
2021/05/04 01:08:38;;;;;;;4.65;3.38;;;7.90;40.90;;;;;;6130693;23;20176;-81
2021/05/04 01:11:05;;;;;;;3.15;2.85;;;7.80;40.80;;;;;;6133737;23;20184;-83
2021/05/04 01:13:31;;;;;;;3.85;2.88;;;7.80;40.90;;;;;;6147820;23;20195;-83
2021/05/04 01:15:58;;;;;;;2.90;2.33;;;7.90;41.00;;;;;;6149470;23;20157;-83
2021/05/04 01:18:26;;;;;;;2.80;2.60;;;7.90;41.00;;;;;;6151887;23;20445;-81
2021/05/04 01:20:53;;;;;;;2.80;2.60;;;8.00;40.50;;;;;;6152655;23;20333;-82
2021/05/04 01:23:19;;;;;;;3.35;2.92;;;8.00;39.90;;;;;;6152627;23;20165;-82
2021/05/04 01:25:46;;;;;;;4.90;2.40;;;8.00;39.50;;;;;;6151890;23;20172;-82
2021/05/04 01:28:12;;;;;;;3.28;2.53;;;8.10;39.40;;;;;;6151066;23;20188;-82
2021/05/04 01:30:39;;;;;;;2.58;2.38;;;8.10;38.80;;;;;;6150159;23;20193;-80
2021/05/04 01:33:06;;;;;;;3.40;3.10;;;8.10;38.80;;;;;;6135941;23;20681;-81
2021/05/04 01:35:32;;;;;;;2.78;2.58;;;8.20;38.90;;;;;;6132518;23;20192;-82
2021/05/04 01:38:01;;;;;;;2.70;2.50;;;8.10;38.80;;;;;;6130463;23;20379;-82
2021/05/04 01:40:28;;;;;;;2.92;2.72;;;8.20;38.90;;;;;;6131143;23;20236;-82
2021/05/04 01:42:54;;;;;;;5.53;2.53;;;8.20;38.90;;;;;;6130288;23;20201;-82
2021/05/04 01:45:21;;;;;;;2.83;2.63;;;8.30;39.00;;;;;;6131349;23;20607;-82
2021/05/04 01:47:47;;;;;;;2.75;2.55;;;8.30;38.40;;;;;;6142233;23;20183;-82
2021/05/04 01:50:14;;;;;;;4.85;2.47;;;8.40;38.00;;;;;;6146116;23;20180;-83
2021/05/04 01:52:40;;;;;;;2.40;2.20;;;8.40;37.30;;;;;;6136915;23;20223;-82
2021/05/04 01:55:10;;;;;;;2.65;2.45;;;8.50;37.20;;;;;;6127966;23;20185;-81
2021/05/04 01:57:37;;;;;;;2.72;2.55;;;8.50;36.80;;;;;;6126636;23;20666;-82
2021/05/04 02:00:06;;;;;;;2.40;2.30;;;8.60;35.90;;;;;;6137798;23;20186;-80
2021/05/04 02:02:32;;;;;;;2.60;2.40;;;8.80;34.40;;;;;;6143046;23;20204;-82
2021/05/04 02:04:59;;;;;;;2.42;2.22;;;8.90;34.40;;;;;;6147914;23;20185;-83
2021/05/04 02:07:25;;;;;;;2.58;2.25;;;9.00;33.90;;;;;;6140340;23;20180;-81
2021/05/04 02:09:52;;;;;;;2.70;2.30;;;9.10;33.10;;;;;;6129070;23;20654;-81
2021/05/04 02:12:19;;;;;;;2.95;2.20;;;9.30;32.40;;;;;;6128876;23;20271;-82
2021/05/04 02:14:46;;;;;;;2.00;1.67;;;9.40;31.70;;;;;;6128692;23;20215;-82
2021/05/04 02:17:12;;;;;;;3.50;2.30;;;9.70;30.90;;;;;;6127569;23;20193;-80
2021/05/04 02:19:38;;;;;;;2.60;2.40;;;9.80;30.30;;;;;;6127794;23;20251;-81
2021/05/04 02:22:05;;;;;;;4.70;2.70;;;10.00;29.70;;;;;;6127549;23;20228;-82
2021/05/04 02:24:31;;;;;;;5.32;2.08;;;10.00;30.00;;;;;;6127735;23;20203;-81
2021/05/04 02:26:58;;;;;;;2.50;2.30;;;10.10;29.60;;;;;;6127798;23;20240;-81
2021/05/04 02:29:25;;;;;;;2.17;1.98;;;10.20;28.90;;;;;;6127959;23;20236;-81
2021/05/04 02:31:52;;;;;;;2.60;2.38;;;10.20;28.90;;;;;;6127544;23;20277;-81
2021/05/04 02:34:18;;;;;;;2.20;1.90;;;10.20;28.90;;;;;;6127842;23;20177;-82
2021/05/04 02:36:44;;;;;;;3.17;2.30;;;10.30;29.10;;;;;;6127103;23;20216;-81
2021/05/04 02:39:11;;;;;;;2.78;2.00;;;10.40;28.90;;;;;;6133187;23;20204;-82
2021/05/04 02:41:37;;;;;;;2.95;2.08;;;10.50;28.50;;;;;;6130053;23;20211;-81
2021/05/04 02:44:05;;;;;;;2.80;2.30;;;10.50;28.50;;;;;;6127850;23;20205;-82
2021/05/04 02:46:34;;;;;;;2.45;2.25;;;10.60;28.10;;;;;;6128072;23;20244;-81
2021/05/04 02:49:00;;;;;;;2.88;2.40;;;10.70;28.10;;;;;;6128224;23;20207;-82
2021/05/04 02:51:26;;;;;;;2.65;2.08;;;10.80;28.20;;;;;;6128601;23;20279;-81
2021/05/04 02:53:53;;;;;;;2.28;2.08;;;10.80;28.10;;;;;;6129641;23;20180;-82
2021/05/04 02:56:20;;;;;;;2.10;1.95;;;10.80;27.90;;;;;;6131646;23;20195;-82
2021/05/04 02:58:46;;;;;;;2.42;2.22;;;10.80;28.00;;;;;;6130774;23;20536;-81
2021/05/04 03:01:13;;;;;;;2.50;2.30;;;11.00;27.60;;;;;;6130824;23;20260;-81
2021/05/04 03:03:40;;;;;;;4.65;2.33;;;11.10;27.50;;;;;;6130469;23;20252;-81
2021/05/04 03:06:07;;;;;;;1.90;1.80;;;11.10;27.30;;;;;;6131430;23;20218;-82
2021/05/04 03:08:33;;;;;;;2.00;1.83;;;11.20;27.30;;;;;;6130962;23;20255;-80
2021/05/04 03:11:00;;;;;;;7.45;3.13;;;11.30;26.90;;;;;;6130453;23;20193;-83
2021/05/04 03:13:27;;;;;;;2.90;1.95;;;11.50;27.00;;;;;;6131317;23;20180;-81
2021/05/04 03:15:54;;;;;;;3.60;2.47;;;11.50;26.90;;;;;;6131837;23;20197;-81
2021/05/04 03:18:21;;;;;;;2.50;2.00;;;11.60;26.80;;;;;;6130688;23;20255;-81
2021/05/04 03:20:49;;;;;;;4.05;2.60;;;11.50;26.80;;;;;;6131121;23;20208;-82
2021/05/04 03:23:16;;;;;;;3.38;2.63;;;11.60;26.90;;;;;;6132983;23;20518;-81
2021/05/04 03:25:43;;;;;;;2.28;2.03;;;11.50;26.80;;;;;;6134114;23;20270;-82
2021/05/04 03:28:09;;;;;;;2.00;1.85;;;11.50;26.80;;;;;;6132133;23;20208;-81
2021/05/04 03:30:36;;;;;;;2.67;2.47;;;11.50;27.00;;;;;;6131583;23;20192;-81
2021/05/04 03:33:06;;;;;;;3.95;1.92;;;11.70;26.80;;;;;;6133176;23;20244;-82
2021/05/04 03:35:33;;;;;;;3.85;2.28;;;11.60;26.60;;;;;;6140636;23;20196;-80
2021/05/04 03:38:01;;;;;;;2.20;2.00;;;11.70;26.60;;;;;;6149971;23;20211;-81
2021/05/04 03:40:28;;;;;;;2.50;2.10;;;11.80;26.30;;;;;;6153038;23;20185;-83
2021/05/04 03:42:54;;;;;;;2.50;2.30;;;11.80;26.60;;;;;;6151396;23;20200;-79
2021/05/04 03:45:21;;;;;;;5.20;2.15;;;11.80;26.20;;;;;;6151145;23;20180;-81
2021/05/04 03:47:48;;;;;;;2.58;2.10;;;11.80;26.40;;;;;;6141496;23;20192;-81
2021/05/04 03:50:16;;;;;;;3.30;1.85;;;11.80;26.40;;;;;;6133525;23;20224;-80
2021/05/04 03:52:43;;;;;;;3.08;1.90;;;11.80;26.40;;;;;;6132178;23;20212;-80
2021/05/04 03:55:12;;;;;;;2.22;2.00;;;11.90;26.30;;;;;;6133736;23;20177;-81
2021/05/04 03:57:38;;;;;;;2.30;2.10;;;12.00;26.10;;;;;;6140544;23;20189;-80
2021/05/04 04:00:08;;;;;;;2.85;2.58;;;12.10;25.70;;;;;;6138164;23;20184;-81
2021/05/04 04:02:34;;;;;;;2.72;2.53;;;12.20;26.40;;;;;;6136267;23;20205;-80
2021/05/04 04:05:01;;;;;;;3.10;2.15;;;12.20;25.90;;;;;;6139249;23;20184;-79
2021/05/04 04:07:29;;;;;;;5.70;2.40;;;12.20;25.80;;;;;;6141243;23;20176;-82
2021/05/04 04:09:55;;;;;;;2.40;2.20;;;12.30;25.50;;;;;;6134605;23;20180;-79
2021/05/04 04:12:24;;;;;;;2.95;2.65;;;12.40;25.40;;;;;;6133279;23;20208;-81
2021/05/04 04:14:50;;;;;;;2.60;2.40;;;12.50;25.40;;;;;;6136144;23;20185;-80
2021/05/04 04:17:16;;;;;;;2.53;1.85;;;12.40;25.20;;;;;;6129669;23;20212;-78
2021/05/04 04:19:43;;;;;;;1.98;1.88;;;12.50;25.30;;;;;;6130353;23;20280;-79
2021/05/04 04:22:09;;;;;;;4.22;2.70;;;12.50;25.20;;;;;;6145373;23;20201;-80
2021/05/04 04:24:36;;;;;;;3.28;2.25;;;12.60;25.00;;;;;;6142266;23;20191;-80
2021/05/04 04:27:02;;;;;;;2.97;2.15;;;12.80;24.70;;;;;;6137350;23;20181;-80
2021/05/04 04:29:30;;;;;;;4.25;2.47;;;12.80;24.50;;;;;;6137609;23;20180;-83
2021/05/04 04:31:56;;;;;;;2.75;2.30;;;12.80;24.30;;;;;;6138307;23;20234;-80
2021/05/04 04:34:23;;;;;;;5.93;2.42;;;12.80;24.70;;;;;;6136550;23;20187;-81
2021/05/04 04:36:49;;;;;;;6.03;2.70;;;12.80;24.40;;;;;;6137068;23;20180;-81
2021/05/04 04:39:15;;;;;;;3.05;2.55;;;12.90;24.10;;;;;;6137633;23;20247;-80
2021/05/04 04:41:42;;;;;;;2.63;2.30;;;13.00;23.80;;;;;;6140953;23;20212;-79
2021/05/04 04:44:09;;;;;;;3.60;2.40;;;13.00;23.80;;;;;;6141088;23;20184;-81
2021/05/04 04:46:44;;;;;;;2.78;2.40;;;13.00;23.80;;;;;;6141872;23;20208;-80
2021/05/04 04:49:12;;;;;;;2.65;2.00;;;13.00;23.80;;;;;;6142751;23;20168;-80
2021/05/04 04:51:39;;;;;;;3.00;2.42;;;13.00;23.80;;;;;;6142766;23;20220;-80
2021/05/04 04:54:06;;;;;;;2.28;2.13;;;13.10;23.90;;;;;;6144327;23;20184;-81
2021/05/04 04:56:33;;;;;;;2.50;2.30;;;13.20;24.00;;;;;;6146786;23;20185;-79
2021/05/04 04:59:00;;;;;;;1.92;1.83;;;13.20;24.00;;;;;;6145360;23;20224;-80
2021/05/04 05:01:26;;;;;;;5.35;2.40;;;13.20;24.00;;;;;;6142618;23;20687;-79
2021/05/04 05:03:54;;;;;;;2.90;2.25;;;13.30;24.00;;;;;;6142874;23;20184;-81
2021/05/04 05:06:20;;;;;;;5.25;2.40;;;13.30;24.10;;;;;;6141657;23;20180;-80
2021/05/04 05:08:48;;;;;;;2.47;2.08;;;13.30;24.10;;;;;;6142475;23;20176;-81
2021/05/04 05:11:15;;;;;;;2.08;1.92;;;13.30;24.10;;;;;;6144355;23;20199;-80
2021/05/04 05:13:43;;;;;;;5.03;2.42;;;13.40;24.10;;;;;;6144437;23;20192;-80
2021/05/04 05:16:09;;;;;;;2.20;2.10;;;13.30;24.10;;;;;;6142821;23;20185;-80
2021/05/04 05:18:36;;;;;;;2.20;1.98;;;13.40;23.90;;;;;;6143863;23;20196;-80
2021/05/04 05:21:04;;;;;;;3.67;2.10;;;13.50;24.20;;;;;;6144635;23;20602;-80
2021/05/04 05:23:30;;;;;;;6.05;2.00;;;13.40;23.70;;;;;;6142924;23;20247;-79
2021/05/04 05:25:57;;;;;;;3.83;2.20;;;13.50;24.00;;;;;;6139537;23;20599;-78
2021/05/04 05:28:24;;;;;;;2.13;1.88;;;13.60;23.50;;;;;;6134317;23;20191;-79
2021/05/04 05:30:52;;;;;;;2.95;2.28;;;13.90;22.90;;;;;;6139198;23;20253;-79
2021/05/04 05:33:18;;;;;;;6.07;2.00;;;14.30;22.40;;;;;;6134922;23;20212;-78
2021/05/04 05:35:45;;;;;;;2.35;2.15;;;14.30;22.00;;;;;;6137738;23;20216;-80
2021/05/04 05:38:12;;;;;;;2.65;2.03;;;14.50;21.70;;;;;;6137288;23;20196;-79
2021/05/04 05:40:39;;;;;;;3.88;2.40;;;15.00;21.20;;;;;;6139357;23;20180;-79
2021/05/04 05:43:05;;;;;;;2.05;1.95;;;15.50;20.60;;;;;;6142687;23;20236;-78
2021/05/04 05:45:32;;;;;;;2.33;1.88;;;15.70;20.30;;;;;;6145969;23;20149;-79
2021/05/04 05:47:58;;;;;;;1.85;1.75;;;15.80;20.00;;;;;;6147020;23;20200;-79
2021/05/04 05:50:25;;;;;;;2.40;2.20;;;15.90;19.50;;;;;;6141940;23;20184;-81
2021/05/04 05:52:51;;;;;;;5.97;2.13;;;16.20;19.10;;;;;;6119963;23;20212;-79
2021/05/04 05:55:18;;;;;;;3.10;2.20;;;16.40;19.10;;;;;;6108974;23;20432;-79
2021/05/04 05:57:45;;;;;;;3.40;1.63;;;16.50;18.70;;;;;;6103950;23;20742;-76
2021/05/04 06:00:16;;;;;;;7.37;2.00;;;16.50;18.90;;;;;;6103146;23;20409;-77
2021/05/04 06:02:42;;;;;;;8.93;2.90;;;16.70;18.30;;;;;;6121246;23;20413;-76
2021/05/04 06:05:10;;;;;;;6.07;1.93;;;17.00;18.50;;;;;;6127277;23;20428;-77
2021/05/04 06:07:36;;;;;;;2.03;1.83;;;17.10;18.60;;;;;;6129087;23;20499;-78
2021/05/04 06:10:03;;;;;;;5.50;2.50;;;17.10;18.60;;;;;;6129800;23;20410;-77
2021/05/04 06:12:31;;;;;;;3.60;2.00;;;17.20;18.60;;;;;;6127020;23;20436;-78
2021/05/04 06:14:57;;;;;;;2.20;1.90;;;16.80;18.30;;;;;;6125956;23;20895;-77
2021/05/04 06:17:23;;;;;;;6.63;3.00;;;16.50;18.10;;;;;;6125076;23;20383;-79
2021/05/04 06:19:50;;;;;;;5.00;1.85;;;16.30;18.00;;;;;;6126847;23;20448;-78
2021/05/04 06:22:16;;;;;;;3.60;1.80;;;16.20;18.70;;;;;;6126850;23;20216;-78
2021/05/04 06:24:43;;;;;;;1.87;1.70;;;16.00;18.80;;;;;;6127281;23;20413;-76
2021/05/04 06:27:09;;;;;;;2.20;2.00;;;16.30;18.60;;;;;;6127391;23;20502;-77
2021/05/04 06:29:36;;;;;;;2.20;2.00;;;16.40;18.10;;;;;;6127597;23;20420;-78
2021/05/04 06:32:09;;;;;;;3.30;2.17;;;16.30;18.70;;;;;;6128946;23;20438;-76
2021/05/04 06:34:35;;;;;;;3.37;2.33;;;16.20;18.90;;;;;;6127990;23;20165;-77
2021/05/04 06:37:01;;;;;;;3.67;2.05;;;16.20;18.00;;;;;;6132778;23;20440;-78
2021/05/04 06:39:28;;;;;;;4.90;1.95;;;16.10;18.40;;;;;;6136708;23;20196;-78
2021/05/04 06:41:55;;;;;;;7.97;2.65;;;15.90;18.50;;;;;;6136823;23;20212;-78
2021/05/04 06:44:21;;;;;;;2.55;1.90;;;15.80;18.90;;;;;;6136235;23;20192;-78
2021/05/04 06:46:49;;;;;;;3.17;1.90;;;15.80;18.90;;;;;;6134503;23;20483;-77
2021/05/04 06:49:15;;;;;;;5.47;2.03;;;15.80;19.10;;;;;;6134649;23;20180;-76
2021/05/04 06:51:41;;;;;;;1.93;1.70;;;15.90;18.90;;;;;;6129797;23;20236;-77
2021/05/04 06:54:08;;;;;;;4.88;1.90;;;16.10;19.30;;;;;;6130402;23;20712;-77
2021/05/04 06:56:34;;;;;;;3.93;2.03;;;16.20;18.40;;;;;;6129241;23;20208;-77
2021/05/04 06:59:01;;;;;;;4.60;1.90;;;16.40;18.50;;;;;;6132023;23;20777;-77
2021/05/04 07:01:27;;;;;;;2.17;1.80;;;16.50;18.10;;;;;;6134284;23;20456;-78
2021/05/04 07:03:55;;;;;;;4.10;1.97;;;16.60;18.20;;;;;;6131490;23;20435;-77
2021/05/04 07:06:21;;;;;;;3.77;2.20;;;16.70;18.30;;;;;;6133003;23;20412;-78
2021/05/04 07:08:48;;;;;;;4.57;2.33;;;16.70;18.30;;;;;;6143555;23;20418;-77
2021/05/04 07:11:15;;;;;;;5.33;2.10;;;16.70;18.30;;;;;;6133626;23;20395;-77
2021/05/04 07:13:42;;;;;;;2.63;2.33;;;16.80;18.30;;;;;;6133443;23;20383;-77
2021/05/04 07:16:08;;;;;;;3.70;1.60;;;16.70;18.30;;;;;;6131941;23;20750;-79
2021/05/04 07:18:35;;;;;;;7.90;1.93;;;16.70;18.30;;;;;;6142039;23;20414;-77
2021/05/04 07:21:07;;;;;;;3.05;1.70;;;16.50;18.10;;;;;;6133962;23;20801;-77
2021/05/04 07:23:34;;;;;;;3.30;2.13;;;16.50;18.70;;;;;;6133483;23;20169;-78
2021/05/04 07:26:01;;;;;;;20.93;2.70;;;16.50;18.10;;;;;;6134000;23;20396;-79
2021/05/04 07:28:28;;;;;;;5.63;2.03;;;16.40;18.50;;;;;;6133514;23;20843;-78
2021/05/04 07:30:56;;;;;;;4.90;2.17;;;16.20;19.00;;;;;;6131338;23;20461;-77
2021/05/04 07:33:22;;;;;;;2.67;2.47;;;16.20;19.30;;;;;;6132896;23;20443;-78
2021/05/04 07:35:50;;;;;;;6.50;2.17;;;16.20;19.10;;;;;;6134548;23;20423;-78
2021/05/04 07:38:17;;;;;;;2.13;1.90;;;16.30;19.30;;;;;;6137251;23;20483;-77
2021/05/04 07:40:44;;;;;;;3.47;1.98;;;16.30;19.40;;;;;;6131209;23;20185;-78
2021/05/04 07:43:11;;;;;;;5.93;2.10;;;16.40;19.70;;;;;;6131212;23;20260;-78
2021/05/04 07:45:37;;;;;;;2.13;1.93;;;16.50;19.20;;;;;;6132751;23;20219;-77
2021/05/04 07:48:06;;;;;;;2.70;1.80;;;16.70;18.90;;;;;;6128304;23;20383;-77
2021/05/04 07:50:33;;;;;;;2.92;2.00;;;16.80;18.50;;;;;;6131164;23;20447;-76
2021/05/04 07:53:00;;;;;;;8.13;2.53;;;16.70;18.90;;;;;;6130276;23;20251;-76
2021/05/04 07:55:28;;;;;;;2.50;1.83;;;16.50;19.20;;;;;;6143112;23;20413;-75
2021/05/04 07:57:54;;;;;;;5.00;2.50;;;16.40;19.30;;;;;;6150845;23;20404;-75
2021/05/04 08:00:21;;;;;;;7.07;2.72;;;16.30;19.50;;;;;;6148953;23;20748;-78
2021/05/04 08:02:47;;;;;;;3.13;2.40;;;16.40;19.50;;;;;;6130360;23;20260;-78
2021/05/04 08:05:14;;;;;;;4.07;2.80;;;16.40;19.40;;;;;;6132373;23;20391;-79
2021/05/04 08:07:40;;;;;;;3.10;1.90;;;16.50;19.30;;;;;;6132675;23;20442;-79
2021/05/04 08:10:09;;;;;;;3.60;2.00;;;16.50;19.60;;;;;;6135624;23;20397;-78
2021/05/04 08:12:37;;;;;;;8.23;2.30;;;16.50;19.40;;;;;;6136619;23;20435;-78
2021/05/04 08:15:05;;;;;;;5.43;1.83;;;16.60;18.90;;;;;;6142210;23;20390;-77
2021/05/04 08:17:35;;;;;;;6.50;2.40;;;16.60;19.10;;;;;;6143413;23;20413;-77
2021/05/04 08:20:03;;;;;;;8.97;2.17;;;16.70;19.00;;;;;;6145930;23;20419;-79
2021/05/04 08:22:30;;;;;;;4.30;1.83;;;16.80;19.00;;;;;;6142701;23;20411;-78
2021/05/04 08:24:59;;;;;;;2.20;2.00;;;16.80;19.20;;;;;;6141543;23;20412;-78
2021/05/04 08:27:26;;;;;;;3.27;1.93;;;16.80;19.20;;;;;;6134797;23;20424;-79
2021/05/04 08:29:53;;;;;;;4.73;2.30;;;16.70;19.20;;;;;;6133548;23;20417;-76
2021/05/04 08:32:20;;;;;;;3.20;1.83;;;16.80;19.10;;;;;;6135863;23;20447;-78
2021/05/04 08:34:46;;;;;;;5.33;2.20;;;16.90;19.00;;;;;;6143095;23;20436;-76
2021/05/04 08:37:12;;;;;;;3.77;2.00;;;17.00;19.00;;;;;;6142679;23;20411;-76
2021/05/04 08:39:39;;;;;;;6.83;2.27;;;17.20;18.60;;;;;;6144498;23;20440;-76
2021/05/04 08:42:06;;;;;;;4.83;2.03;;;17.40;18.80;;;;;;6149467;23;20449;-76
2021/05/04 08:44:34;;;;;;;2.43;2.10;;;17.60;18.90;;;;;;6148588;23;20400;-77
2021/05/04 08:47:03;;;;;;;3.63;2.10;;;17.40;18.80;;;;;;6146246;23;20398;-76
2021/05/04 08:49:30;;;;;;;2.63;1.93;;;17.50;18.80;;;;;;6148931;23;20379;-76
2021/05/04 08:51:57;;;;;;;3.27;2.10;;;17.20;18.60;;;;;;6148085;23;20580;-77
2021/05/04 08:54:24;;;;;;;3.03;1.97;;;17.20;18.60;;;;;;6149301;23;20396;-77
2021/05/04 08:56:50;;;;;;;2.20;1.80;;;17.40;18.80;;;;;;6148565;23;20396;-75
2021/05/04 08:59:17;;;;;;;2.30;2.03;;;17.60;18.90;;;;;;6149118;23;20478;-77
2021/05/04 09:01:44;;;;;;;3.03;1.97;;;17.70;18.80;;;;;;6142375;23;20407;-78
2021/05/04 09:04:29;;;;;;;2.90;2.23;;;17.90;18.70;;;;;;6140508;23;20387;-78
2021/05/04 09:07:02;;;;;;;2.70;2.00;;;17.90;18.60;;;;;;6132358;23;20397;-77
2021/05/04 09:09:32;;;;;;;2.93;2.00;;;17.80;19.10;;;;;;6135507;23;20391;-79
2021/05/04 09:12:06;;;;;;;8.90;2.00;;;17.90;18.40;;;;;;6131424;23;20813;-79
2021/05/04 09:14:44;;;;;;;2.90;2.40;;;17.90;17.80;;;;;;6132333;23;20896;-78
2021/05/04 09:17:16;;;;;;;5.33;2.30;;;17.90;17.90;;;;;;6132165;23;20399;-79
2021/05/04 09:22:38;;;;;;;4.30;2.40;;;18.00;18.00;;;;;;6127737;23;20450;-79
2021/05/04 09:25:07;;;;;;;5.10;2.40;;;18.40;17.40;;;;;;6132733;23;20735;-78
2021/05/04 09:27:33;;;;;;;5.83;2.77;;;18.40;17.30;;;;;;6134897;23;20383;-77
2021/05/04 09:30:03;;;;;;;5.17;2.10;;;18.20;18.00;;;;;;6134995;23;20379;-80
2021/05/04 09:32:31;;;;;;;3.10;2.30;;;18.30;17.50;;;;;;6136581;23;21013;-78
2021/05/04 09:35:00;;;;;;;2.63;1.43;;;17.90;17.40;;;;;;6135351;23;20383;-78
2021/05/04 09:37:33;;;;;;;5.57;2.23;;;18.10;17.30;;;;;;6143369;23;20869;-78
2021/05/04 09:40:25;;;;;;;5.40;2.03;;;17.50;16.80;;;;;;6134946;23;20941;-78
2021/05/04 09:43:10;;;;;;;5.77;2.20;;;17.00;18.50;;;;;;6136818;23;20431;-77
2021/05/04 09:45:39;;;;;;;2.80;1.80;;;16.90;18.40;;;;;;6140669;23;20392;-79
2021/05/04 09:48:10;;;;;;;2.97;1.50;;;16.40;18.80;;;;;;6143829;23;20815;-78
2021/05/04 09:50:57;;;;;;;2.60;1.23;;;16.30;18.00;;;;;;6138982;23;20382;-79
2021/05/04 09:53:27;;;;;;;3.73;1.30;;;16.20;19.30;;;;;;6131803;23;20448;-78
2021/05/04 09:55:56;;;;;;;2.50;1.33;;;16.10;19.90;;;;;;6137916;23;20431;-79
2021/05/04 09:58:34;;;;;;;2.13;1.90;;;16.10;19.50;;;;;;6140546;23;20425;-78
2021/05/04 10:01:01;;;;;;;4.30;1.48;;;15.80;19.20;;;;;;6135351;23;20742;-78
2021/05/04 10:03:28;;;;;;;3.40;1.60;;;15.70;17.50;;;;;;6138270;23;20243;-79
2021/05/04 10:05:58;;;;;;;7.07;2.28;;;15.80;17.60;;;;;;6140318;23;20218;-78
2021/05/04 10:08:27;;;;;;;2.20;1.47;;;15.90;17.20;;;;;;6139336;23;20176;-79
2021/05/04 10:10:54;;;;;;;1.50;1.40;;;16.30;17.10;;;;;;6138080;23;20415;-78
2021/05/04 10:13:23;;;;;;;1.73;1.40;;;16.60;15.30;;;;;;6132990;23;20512;-77
2021/05/04 10:15:50;;;;;;;4.43;1.60;;;16.30;15.60;;;;;;6134332;23;20184;-78
2021/05/04 10:18:18;;;;;;;2.30;1.47;;;16.40;15.90;;;;;;6133795;23;20448;-78
2021/05/04 10:20:45;;;;;;;3.20;1.70;;;16.60;16.00;;;;;;6132167;23;20898;-79
2021/05/04 10:23:13;;;;;;;3.27;1.50;;;16.40;16.30;;;;;;6132350;23;20407;-78
2021/05/04 10:25:41;;;;;;;7.05;1.60;;;16.00;16.40;;;;;;6131703;23;20776;-77
2021/05/04 10:28:08;;;;;;;1.55;1.45;;;15.80;17.60;;;;;;6132833;23;20192;-78
2021/05/04 10:30:35;;;;;;;3.35;1.20;;;16.00;17.80;;;;;;6134884;23;20263;-78
2021/05/04 10:33:08;;;;;;;1.67;1.55;;;16.00;17.70;;;;;;6135347;23;20211;-78
2021/05/04 10:35:42;;;;;;;3.42;1.65;;;16.10;16.90;;;;;;6136074;23;20179;-80
2021/05/04 10:38:09;;;;;;;2.25;1.20;;;16.10;16.60;;;;;;6136012;23;20193;-79
2021/05/04 10:40:39;;;;;;;5.03;1.50;;;16.00;15.60;;;;;;6136830;23;20193;-77
2021/05/04 10:43:35;;;;;;;6.07;1.53;;;16.20;15.90;;;;;;6137254;23;20228;-78
2021/05/04 10:46:04;;;;;;;5.43;1.40;;;16.20;17.90;;;;;;6132570;23;20480;-77
2021/05/04 10:48:48;;;;;;;6.27;1.43;;;16.10;18.50;;;;;;6131414;23;20873;-78
2021/05/04 10:51:16;;;;;;;1.80;1.30;;;15.90;20.10;;;;;;6133372;23;20396;-77
2021/05/04 10:54:03;;;;;;;3.60;1.77;;;15.50;20.70;;;;;;6131842;23;20247;-80
2021/05/04 10:56:42;;;;;;;2.10;1.50;;;15.40;23.50;;;;;;6130882;23;20340;-79
2021/05/04 10:59:10;;;;;;;2.80;1.47;;;15.20;24.20;;;;;;6130690;23;20184;-79
2021/05/04 11:01:37;;;;;;;1.42;1.33;;;15.30;25.50;;;;;;6131521;23;20463;-80
2021/05/04 11:04:05;;;;;;;6.75;1.55;;;15.10;27.90;;;;;;6133020;23;20195;-79
2021/05/04 11:06:43;;;;;;;1.67;1.58;;;14.80;27.40;;;;;;6136844;23;20194;-80
2021/05/04 11:09:19;;;;;;;1.73;1.63;;;14.70;27.90;;;;;;6135532;23;20566;-78
2021/05/04 11:11:50;;;;;;;4.13;1.50;;;14.50;31.30;;;;;;6136415;23;20215;-78
2021/05/04 11:14:28;;;;;;;1.42;1.33;;;14.10;32.40;;;;;;6135722;23;20173;-78
2021/05/04 11:17:06;;;;;;;3.10;1.80;;;14.00;33.20;;;;;;6133093;23;20195;-79
2021/05/04 11:19:33;;;;;;;1.83;1.73;;;13.90;34.50;;;;;;6131529;23;20208;-79
2021/05/04 11:22:24;;;;;;;1.75;1.65;;;13.70;34.20;;;;;;6134418;23;20205;-79
2021/05/04 11:24:53;;;;;;;3.78;1.65;;;13.50;35.40;;;;;;6131729;23;20165;-79
2021/05/04 11:27:23;;;;;;;2.47;2.25;;;13.40;37.70;;;;;;6130710;23;20192;-79
2021/05/04 11:29:50;;;;;;;4.28;2.25;;;13.40;39.10;;;;;;6132356;23;20181;-79
2021/05/04 11:32:18;;;;;;;2.72;1.90;;;13.50;36.20;;;;;;6133623;23;20259;-78
2021/05/04 11:34:46;;;;;;;2.35;1.85;;;13.50;37.00;;;;;;6138024;23;20191;-80
2021/05/04 11:37:36;;;;;;;3.65;2.63;;;13.70;36.40;;;;;;6146968;23;20184;-80
2021/05/04 11:40:05;;;;;;;3.55;1.95;;;13.70;36.00;;;;;;6139333;23;20285;-78
2021/05/04 11:42:34;;;;;;;3.47;1.70;;;13.70;36.20;;;;;;6134033;23;20204;-79
2021/05/04 11:45:12;;;;;;;1.77;1.67;;;13.80;35.30;;;;;;6136187;23;20200;-78
2021/05/04 11:47:39;;;;;;;3.05;1.92;;;13.90;34.80;;;;;;6136233;23;20215;-78
2021/05/04 11:50:10;;;;;;;2.75;1.88;;;14.00;34.70;;;;;;6136672;23;20482;-78
2021/05/04 11:52:37;;;;;;;2.47;2.20;;;14.00;32.20;;;;;;6134704;23;20209;-78
2021/05/04 11:55:12;;;;;;;1.95;1.70;;;14.10;33.30;;;;;;6141501;23;20176;-81
2021/05/04 11:57:41;;;;;;;2.85;1.85;;;14.10;33.30;;;;;;6147428;23;20164;-80
2021/05/04 12:00:10;;;;;;;2.15;1.92;;;14.20;33.40;;;;;;6150849;23;20208;-81
2021/05/04 12:02:36;;;;;;;2.40;1.70;;;14.20;32.90;;;;;;6152631;23;20219;-79
2021/05/04 12:05:04;;;;;;;8.15;1.77;;;14.20;32.90;;;;;;6153007;23;20175;-79
2021/05/04 12:07:36;;;;;;;1.65;1.55;;;14.20;30.40;;;;;;6143201;23;20177;-79
2021/05/04 12:10:04;;;;;;;2.55;1.75;;;14.30;31.50;;;;;;6138385;23;20181;-79
2021/05/04 12:12:41;;;;;;;2.85;1.70;;;14.40;29.70;;;;;;6139000;23;20231;-78
2021/05/04 12:15:09;;;;;;;1.67;1.52;;;14.30;30.40;;;;;;6141711;23;20228;-80
2021/05/04 12:17:36;;;;;;;2.28;1.55;;;14.50;29.90;;;;;;6133773;23;20188;-78
2021/05/04 12:20:13;;;;;;;2.60;1.55;;;14.60;29.60;;;;;;6131983;23;20228;-79
2021/05/04 12:22:43;;;;;;;1.40;1.30;;;14.80;29.50;;;;;;6132967;23;20207;-79
2021/05/04 12:25:12;;;;;;;3.28;1.90;;;14.90;29.00;;;;;;6134618;23;20327;-78
2021/05/04 12:27:40;;;;;;;4.40;1.40;;;15.10;28.70;;;;;;6134920;23;20200;-80
2021/05/04 12:30:10;;;;;;;3.38;1.40;;;14.90;28.50;;;;;;6136974;23;20227;-79
2021/05/04 12:32:36;;;;;;;3.75;1.63;;;14.80;28.70;;;;;;6138607;23;20687;-78
2021/05/04 12:35:25;;;;;;;1.70;1.60;;;14.60;28.70;;;;;;6137329;23;20657;-78
2021/05/04 12:38:08;;;;;;;1.98;1.52;;;14.50;29.20;;;;;;6136537;23;20169;-78
2021/05/04 12:40:36;;;;;;;0.98;0.98;;;14.60;29.00;;;;;;6137470;23;20172;-80
2021/05/04 12:43:18;;;;;;;1.48;1.38;;;14.50;28.70;;;;;;6136267;23;20232;-79
2021/05/04 12:46:05;;;;;;;3.65;1.40;;;14.50;29.00;;;;;;6136051;23;20184;-79
2021/05/04 12:48:32;;;;;;;3.50;1.50;;;14.50;29.10;;;;;;6137150;23;20176;-79
2021/05/04 12:51:01;;;;;;;4.72;1.40;;;14.60;29.20;;;;;;6136309;23;20207;-79
2021/05/04 12:53:32;;;;;;;0.85;0.85;;;14.60;29.00;;;;;;6132578;23;20212;-79
2021/05/04 12:56:04;;;;;;;3.63;1.48;;;14.60;28.30;;;;;;6134981;23;20192;-78